Berlin, New York
Current Conditions -  °F | °C
As of 3:52 PM on Sunday 21 Dec 2014 (Local Time) from KAQW Reporting Station
Overcast Overcast  
Wind Chill: 30°   Ceiling: 3000
Heat Index: 30°   Visibility: 7mi
Dew Point: 25°   Wind: 0mph
Humidity: 82%   Direction: NA
Pressure: 30.29"   Gusts: NA
Location:  42.69°N, 73.37°W
Report Text: KAQW 212052Z AUTO 00000KT 7SM OVC030 M01/M04 A3029 RMK AO2 SLP266 T10111039 55001
Loading
Personal Weather Stations






























Interactive Weather Map New forecast layout! Learn more

10-Day Weather Forecast

Advertisements
Track Severe Weather on mobile